Time;durP1;ratioP1;P1;durP2;ratioP2;P2;SDS_P1;SDS_P2;PMS_P1;PMS_P2;Temp;Humidity;BMP_temperature;BMP_pressure;BME280_temperature;BME280_humidity;BME280_pressure;Samples;Min_cycle;Max_cycle;Signal;HPM_P1;HPM_P2
2024/04/10 00:02:18;;;;;;;9.37;8.70;;;;;;;8.68;80.03;143957.44;5410709;26;20220;-48
2024/04/10 00:04:45;;;;;;;9.23;8.63;;;;;;;8.62;80.03;143942.94;5410492;26;20653;-49
2024/04/10 00:07:13;;;;;;;8.90;8.40;;;;;;;8.61;80.20;143940.50;5410339;26;20221;-48
2024/04/10 00:09:39;;;;;;;8.90;8.20;;;;;;;8.65;80.14;143948.97;5410194;26;20572;-49
2024/04/10 00:12:07;;;;;;;8.93;8.30;;;;;;;8.57;80.61;143930.88;5410452;26;20251;-49
2024/04/10 00:14:36;;;;;;;8.90;8.40;;;;;;;8.59;80.59;143935.69;5410135;26;20221;-48
2024/04/10 00:17:07;;;;;;;9.13;8.40;;;;;;;8.51;80.60;143916.34;5410360;26;20264;-48
2024/04/10 00:19:32;;;;;;;8.97;8.40;;;;;;;8.54;80.92;143922.41;5409918;26;20259;-48
2024/04/10 00:22:02;;;;;;;8.60;8.10;;;;;;;8.46;81.15;143904.28;5410170;26;20621;-53
2024/04/10 00:24:28;;;;;;;8.40;8.00;;;;;;;8.41;81.56;143892.22;5409867;26;20217;-46
2024/04/10 00:26:56;;;;;;;8.90;8.30;;;;;;;8.40;81.57;143888.56;5410140;26;20277;-47
2024/04/10 00:29:21;;;;;;;8.30;7.80;;;;;;;8.40;81.88;143888.56;5409860;26;20216;-47
2024/04/10 00:31:53;;;;;;;9.47;8.63;;;;;;;8.33;81.98;143872.88;5409891;26;20597;-47
2024/04/10 00:34:21;;;;;;;8.53;7.90;;;;;;;8.17;82.61;143834.16;5409913;26;20225;-47
2024/04/10 00:36:49;;;;;;;8.43;7.93;;;;;;;8.15;83.11;143829.34;5409626;26;20221;-47
2024/04/10 00:39:15;;;;;;;8.87;7.97;;;;;;;8.18;83.00;143837.81;5409753;26;20217;-47
2024/04/10 00:41:43;;;;;;;8.30;7.80;;;;;;;8.11;82.65;143819.69;5412333;26;20225;-47
2024/04/10 00:44:09;;;;;;;8.30;7.80;;;;;;;8.17;82.58;143834.16;5412987;26;20310;-47
2024/04/10 00:46:37;;;;;;;8.83;8.03;;;;;;;8.12;82.87;143822.09;5413354;26;20735;-47
2024/04/10 00:49:03;;;;;;;8.47;7.97;;;;;;;8.09;83.42;143814.84;5413199;26;20228;-47
2024/04/10 00:51:34;;;;;;;8.47;7.80;;;;;;;8.03;83.72;143801.53;5413303;26;20213;-49
2024/04/10 00:54:02;;;;;;;8.60;8.00;;;;;;;8.00;83.88;143793.13;5413960;26;20264;-47
2024/04/10 00:56:30;;;;;;;8.83;8.33;;;;;;;8.03;83.69;143801.53;5413530;26;20220;-47
2024/04/10 00:58:57;;;;;;;8.57;8.10;;;;;;;7.95;83.98;143782.22;5413362;26;20260;-50
2024/04/10 01:01:26;;;;;;;8.30;7.80;;;;;;;7.95;83.90;143781.06;5413461;26;20488;-47
2024/04/10 01:03:51;;;;;;;8.33;7.53;;;;;;;7.92;84.16;143775.03;5413105;26;20243;-51
2024/04/10 01:06:19;;;;;;;8.50;8.00;;;;;;;7.75;83.69;143735.19;5413138;26;20272;-47
2024/04/10 01:08:47;;;;;;;7.87;7.37;;;;;;;7.88;84.41;143764.13;5413229;26;20263;-47
2024/04/10 01:11:15;;;;;;;8.43;7.80;;;;;;;7.85;84.47;143756.88;5412950;26;20461;-48
2024/04/10 01:13:41;;;;;;;7.97;7.47;;;;;;;7.78;84.78;143741.22;5413011;26;20224;-46
2024/04/10 01:16:09;;;;;;;8.40;7.90;;;;;;;7.78;84.62;143740.00;5412708;26;20619;-46
2024/04/10 01:18:34;;;;;;;7.83;7.43;;;;;;;7.77;84.85;143738.78;5412796;26;20247;-46
2024/04/10 01:21:02;;;;;;;8.53;7.73;;;;;;;7.69;84.63;143720.69;5412797;26;20237;-45
2024/04/10 01:23:30;;;;;;;7.80;7.20;;;;;;;7.71;85.20;143724.28;5412776;26;20550;-48
2024/04/10 01:25:58;;;;;;;8.37;7.80;;;;;;;7.61;85.26;143700.16;5412535;26;20220;-46
2024/04/10 01:28:24;;;;;;;8.33;7.83;;;;;;;7.62;85.63;143703.75;5412449;26;20743;-47
2024/04/10 01:30:52;;;;;;;8.17;7.60;;;;;;;7.59;85.65;143695.34;5412470;26;20225;-46
2024/04/10 01:33:17;;;;;;;8.40;7.80;;;;;;;7.59;85.42;143695.34;5412705;26;20216;-47
2024/04/10 01:35:46;;;;;;;8.67;8.17;;;;;;;7.58;85.83;143692.91;5412784;26;20268;-47
2024/04/10 01:38:11;;;;;;;8.73;8.10;;;;;;;7.57;86.10;143691.69;5412424;26;20217;-47
2024/04/10 01:40:42;;;;;;;8.97;8.23;;;;;;;7.50;85.88;143674.81;5412385;26;20655;-47
2024/04/10 01:43:07;;;;;;;8.27;7.77;;;;;;;7.58;85.94;143692.91;5412384;26;20214;-47
2024/04/10 01:45:36;;;;;;;8.83;8.13;;;;;;;7.48;86.33;143668.78;5412424;26;20267;-47
2024/04/10 01:48:02;;;;;;;8.80;8.27;;;;;;;7.49;86.44;143671.16;5412507;26;20747;-47
2024/04/10 01:50:30;;;;;;;8.90;8.20;;;;;;;7.44;86.66;143659.09;5412140;26;20217;-46
2024/04/10 01:52:56;;;;;;;8.83;8.17;;;;;;;7.48;86.25;143668.78;5411424;26;20217;-47
2024/04/10 01:55:24;;;;;;;8.63;8.00;;;;;;;7.47;86.31;143666.34;5412264;26;20738;-47
2024/04/10 01:57:52;;;;;;;8.47;7.77;;;;;;;7.50;86.38;143673.59;5412075;26;20216;-46
2024/04/10 02:00:22;;;;;;;8.07;7.57;;;;;;;7.52;86.35;143678.41;5412192;26;20217;-47
2024/04/10 02:02:48;;;;;;;7.83;7.43;;;;;;;7.61;86.14;143701.38;5412188;26;20313;-46
2024/04/10 02:05:16;;;;;;;8.50;8.00;;;;;;;7.56;86.14;143688.09;5412302;26;20644;-47
2024/04/10 02:07:42;;;;;;;8.40;7.80;;;;;;;7.53;86.12;143680.84;5412237;26;20212;-47
2024/04/10 02:10:10;;;;;;;7.77;7.17;;;;;;;7.57;85.85;143691.69;5411662;26;20629;-47
2024/04/10 02:12:35;;;;;;;6.93;6.43;;;;;;;7.56;85.87;143689.31;5412038;26;20240;-47
2024/04/10 02:15:06;;;;;;;7.13;6.53;;;;;;;7.57;86.10;143690.47;5412452;26;20228;-47
2024/04/10 02:17:32;;;;;;;8.13;7.60;;;;;;;7.54;86.27;143684.44;5412051;26;20260;-47
2024/04/10 02:20:00;;;;;;;8.10;7.43;;;;;;;7.49;86.42;143671.16;5412081;26;20224;-47
2024/04/10 02:22:26;;;;;;;7.20;6.70;;;;;;;7.49;86.19;143672.38;5411733;26;20213;-47
2024/04/10 02:24:54;;;;;;;7.50;7.00;;;;;;;7.51;85.91;143677.19;5411767;26;20221;-46
2024/04/10 02:27:19;;;;;;;8.03;7.47;;;;;;;7.53;85.95;143680.84;5411860;26;20711;-48
2024/04/10 02:29:47;;;;;;;8.47;7.80;;;;;;;7.50;85.52;143674.81;5411632;26;20221;-47
2024/04/10 02:32:16;;;;;;;6.30;5.90;;;;;;;7.56;85.64;143689.31;5412295;26;20243;-47
2024/04/10 02:34:44;;;;;;;7.30;6.80;;;;;;;7.53;85.72;143680.84;5411959;26;20709;-47
2024/04/10 02:37:10;;;;;;;8.13;7.60;;;;;;;7.38;86.21;143645.81;5411492;26;20313;-46
2024/04/10 02:39:38;;;;;;;7.60;7.10;;;;;;;7.48;86.08;143670.00;5411705;26;20216;-47
2024/04/10 02:42:04;;;;;;;7.87;7.27;;;;;;;7.53;86.20;143682.06;5411674;26;20217;-47
2024/04/10 02:44:32;;;;;;;8.37;7.77;;;;;;;7.51;86.08;143676.03;5411705;26;20221;-46
2024/04/10 02:46:57;;;;;;;8.17;7.57;;;;;;;7.52;85.84;143678.41;5411488;26;20708;-47
2024/04/10 02:49:28;;;;;;;7.77;7.27;;;;;;;7.45;85.51;143662.75;5411428;26;20259;-47
2024/04/10 02:51:53;;;;;;;6.97;6.47;;;;;;;7.45;85.86;143661.53;5411707;26;20549;-47
2024/04/10 02:54:21;;;;;;;7.40;6.80;;;;;;;7.38;86.16;143644.59;5411172;26;20260;-47
2024/04/10 02:56:47;;;;;;;7.63;7.10;;;;;;;7.28;86.31;143620.47;5411173;26;20271;-47
2024/04/10 02:59:15;;;;;;;7.87;7.37;;;;;;;7.13;86.85;143585.53;5411661;26;20221;-47
2024/04/10 03:01:40;;;;;;;8.73;8.03;;;;;;;7.02;87.50;143558.97;5411063;26;20243;-47
2024/04/10 03:04:08;;;;;;;8.17;7.47;;;;;;;6.92;88.02;143534.81;5409554;26;20221;-48
2024/04/10 03:06:37;;;;;;;8.30;7.70;;;;;;;6.88;87.91;143526.38;5411052;26;20217;-47
2024/04/10 03:09:05;;;;;;;7.97;7.37;;;;;;;6.81;88.38;143509.47;5410951;26;20296;-47
2024/04/10 03:11:30;;;;;;;8.17;7.67;;;;;;;6.80;88.33;143505.88;5411416;26;20243;-47
2024/04/10 03:13:58;;;;;;;7.40;6.90;;;;;;;6.79;88.60;143503.44;5411217;26;20221;-48
2024/04/10 03:16:24;;;;;;;8.93;8.13;;;;;;;6.80;88.73;143505.88;5411141;26;20216;-48
2024/04/10 03:18:52;;;;;;;7.90;7.40;;;;;;;6.70;88.63;143481.72;5411103;26;20292;-47
2024/04/10 03:21:17;;;;;;;7.47;6.93;;;;;;;6.70;88.80;143482.94;5410781;26;20228;-47
2024/04/10 03:25:25;;;;;;;8.40;7.80;;;;;;;6.62;88.93;143462.44;5575785;25;20632;-48
2024/04/10 03:27:50;;;;;;;9.23;8.43;;;;;;;6.45;89.23;143423.84;5539258;25;20308;-47
2024/04/10 03:30:19;;;;;;;8.20;7.50;;;;;;;6.60;89.15;143458.81;5539218;25;20217;-47
2024/04/10 03:32:44;;;;;;;8.63;8.10;;;;;;;6.55;89.44;143448.00;5539081;25;20213;-47
2024/04/10 03:35:12;;;;;;;8.47;7.77;;;;;;;6.53;89.16;143441.91;5538919;25;20224;-47
2024/04/10 03:37:38;;;;;;;8.27;7.57;;;;;;;6.48;89.31;143429.84;5539051;25;20217;-47
2024/04/10 03:40:07;;;;;;;8.70;7.93;;;;;;;6.38;89.73;143405.75;5538818;25;20255;-47
2024/04/10 03:42:38;;;;;;;8.63;8.03;;;;;;;6.38;89.75;143406.97;5539137;25;20217;-46
2024/04/10 03:45:06;;;;;;;7.33;6.73;;;;;;;6.39;89.34;143408.19;5538932;25;20217;-47
2024/04/10 03:47:35;;;;;;;7.57;6.90;;;;;;;6.44;89.38;143420.25;5538824;25;20243;-47
2024/04/10 03:50:03;;;;;;;7.80;7.30;;;;;;;6.25;89.65;143375.63;5538865;25;20240;-46
2024/04/10 03:52:31;;;;;;;8.10;7.33;;;;;;;6.24;90.13;143372.00;5539152;25;20225;-47
2024/04/10 03:54:56;;;;;;;8.33;7.63;;;;;;;6.25;90.17;143374.41;5538772;25;20239;-47
2024/04/10 03:57:24;;;;;;;7.97;7.27;;;;;;;6.28;90.27;143381.66;5538603;25;20256;-46
2024/04/10 03:59:52;;;;;;;7.47;6.83;;;;;;;6.29;90.19;143385.25;5538694;25;20213;-46
2024/04/10 04:02:21;;;;;;;8.30;7.70;;;;;;;6.27;90.43;143380.44;5538635;25;20216;-47
2024/04/10 04:04:46;;;;;;;7.80;7.20;;;;;;;6.23;90.29;143369.59;5538686;25;20747;-47
2024/04/10 04:07:15;;;;;;;8.10;7.40;;;;;;;6.32;90.71;143392.50;5538634;25;20213;-46
2024/04/10 04:09:41;;;;;;;8.33;7.73;;;;;;;6.30;90.69;143387.69;5518907;25;20230;-47
2024/04/10 04:12:09;;;;;;;7.47;6.77;;;;;;;6.32;90.74;143391.28;5501295;25;20244;-48
2024/04/10 04:14:35;;;;;;;7.70;7.00;;;;;;;6.30;90.92;143386.47;5501324;25;20549;-47
2024/04/10 04:17:05;;;;;;;8.10;7.30;;;;;;;6.34;90.47;143397.31;5501200;25;20233;-47
2024/04/10 04:19:31;;;;;;;8.47;7.87;;;;;;;6.35;90.54;143399.72;5501519;25;20605;-47
2024/04/10 04:21:59;;;;;;;7.83;7.30;;;;;;;6.30;90.57;143387.69;5501202;25;20218;-47
2024/04/10 04:24:24;;;;;;;8.90;8.23;;;;;;;6.35;90.52;143398.53;5501107;25;20229;-47
2024/04/10 04:26:52;;;;;;;7.63;6.93;;;;;;;6.35;90.49;143399.72;5501432;25;20290;-47
2024/04/10 04:29:18;;;;;;;8.57;8.07;;;;;;;6.34;90.45;143397.31;5500953;25;20214;-47
2024/04/10 04:31:48;;;;;;;9.73;8.93;;;;;;;6.32;90.97;143391.28;5501330;25;20241;-47
2024/04/10 04:34:17;;;;;;;9.33;8.53;;;;;;;6.39;90.32;143409.34;5500649;25;20591;-48
2024/04/10 04:36:45;;;;;;;6.97;6.33;;;;;;;6.44;89.92;143420.25;5484491;26;20638;-46
2024/04/10 04:39:13;;;;;;;8.63;7.93;;;;;;;6.45;89.93;143423.84;5485291;26;20321;-47
2024/04/10 04:41:41;;;;;;;9.47;8.57;;;;;;;6.34;90.09;143397.31;5485317;26;20254;-47
2024/04/10 04:44:07;;;;;;;9.47;8.57;;;;;;;6.42;89.94;143415.44;5485158;26;20215;-47
2024/04/10 04:46:35;;;;;;;9.30;8.60;;;;;;;6.39;90.40;143409.34;5485065;26;20244;-48
2024/04/10 04:49:00;;;;;;;9.23;8.63;;;;;;;6.40;90.36;143410.56;5485210;26;20241;-47
2024/04/10 04:51:31;;;;;;;8.00;7.50;;;;;;;6.50;89.96;143435.88;5485058;26;20214;-46
2024/04/10 04:53:56;;;;;;;8.70;8.00;;;;;;;6.53;89.63;143443.13;5484986;26;20215;-47
2024/04/10 04:56:24;;;;;;;7.90;7.47;;;;;;;6.50;89.98;143435.88;5484962;26;20219;-47
2024/04/10 04:58:50;;;;;;;9.23;8.53;;;;;;;6.57;89.72;143452.81;5485060;26;20243;-46
2024/04/10 05:01:18;;;;;;;8.70;8.00;;;;;;;6.64;89.26;143467.28;5485061;26;20214;-48
2024/04/10 05:06:32;;;;;;;9.30;8.80;;;;;;;6.79;88.81;143504.66;5488014;26;20307;-47
2024/04/10 05:08:58;;;;;;;8.13;7.40;;;;;;;6.84;88.75;143515.50;5485371;26;20231;-47
2024/04/10 05:11:26;;;;;;;8.77;8.20;;;;;;;6.84;88.94;143516.72;5484916;26;20252;-48
2024/04/10 05:13:51;;;;;;;9.33;8.43;;;;;;;6.96;88.81;143544.47;5484643;26;20251;-47
2024/04/10 05:16:19;;;;;;;9.07;8.27;;;;;;;7.07;88.56;143571.03;5484923;26;20242;-46
2024/04/10 05:18:45;;;;;;;8.80;8.10;;;;;;;7.25;87.29;143614.44;5484961;26;20536;-47
2024/04/10 05:21:13;;;;;;;9.10;8.30;;;;;;;7.32;86.08;143631.38;5484977;26;20257;-46
2024/04/10 05:23:41;;;;;;;9.70;8.37;;;;;;;7.37;85.87;143643.44;5484634;26;20227;-46
2024/04/10 05:26:09;;;;;;;7.97;7.47;;;;;;;7.43;85.51;143657.88;5484529;26;20710;-47
2024/04/10 05:28:34;;;;;;;8.53;8.00;;;;;;;7.50;84.93;143673.59;5484700;26;20761;-47
2024/04/10 05:31:03;;;;;;;9.10;8.30;;;;;;;7.63;84.21;143704.97;5484485;26;20242;-47
2024/04/10 05:33:29;;;;;;;9.37;8.37;;;;;;;7.71;82.93;143725.50;5484788;26;20245;-47
2024/04/10 05:36:00;;;;;;;8.63;7.70;;;;;;;7.78;82.59;143741.22;5484687;26;20631;-47
2024/04/10 05:38:29;;;;;;;9.97;8.97;;;;;;;7.89;82.42;143767.78;5484378;26;20555;-47
2024/04/10 05:41:03;;;;;;;8.83;8.13;;;;;;;8.00;81.65;143794.34;5484589;26;20319;-47
2024/04/10 05:43:28;;;;;;;8.47;7.73;;;;;;;8.11;81.24;143819.69;5484588;26;20226;-47
2024/04/10 05:45:57;;;;;;;10.57;8.47;;;;;;;8.24;81.49;143851.09;5484249;26;20310;-47
2024/04/10 05:48:23;;;;;;;10.70;8.70;;;;;;;8.38;79.26;143883.75;5484188;26;20222;-47
2024/04/10 05:50:51;;;;;;;9.77;8.77;;;;;;;8.47;78.59;143905.50;5484256;26;20786;-46
2024/04/10 05:53:16;;;;;;;11.93;8.77;;;;;;;8.42;79.29;143894.59;5484498;26;20249;-48
2024/04/10 05:55:44;;;;;;;8.40;7.90;;;;;;;8.58;78.48;143932.09;5484073;26;20257;-47
2024/04/10 05:58:12;;;;;;;8.83;8.10;;;;;;;8.70;76.15;143961.06;5484046;26;20223;-47
2024/04/10 06:00:41;;;;;;;9.47;8.57;;;;;;;8.72;76.51;143965.88;5484143;26;20672;-47
2024/04/10 06:03:06;;;;;;;9.10;8.40;;;;;;;8.78;75.10;143980.38;5483854;26;20214;-47
2024/04/10 06:05:34;;;;;;;9.67;8.60;;;;;;;8.82;75.22;143990.06;5484060;26;20268;-48
2024/04/10 06:08:00;;;;;;;8.70;7.90;;;;;;;8.81;74.57;143988.84;5483932;26;20215;-47
2024/04/10 06:10:28;;;;;;;9.37;8.47;;;;;;;8.83;74.54;143993.69;5483500;26;20620;-47
2024/04/10 06:12:53;;;;;;;13.40;8.50;;;;;;;8.97;75.08;144025.09;5484044;26;20572;-48
2024/04/10 06:15:24;;;;;;;8.77;8.03;;;;;;;8.94;73.29;144020.25;5483907;26;20223;-48
2024/04/10 06:17:49;;;;;;;8.67;7.80;;;;;;;9.02;73.55;144037.16;5483847;26;20261;-47
2024/04/10 06:20:18;;;;;;;9.57;8.77;;;;;;;9.02;72.89;144037.16;5483978;26;20219;-47
2024/04/10 06:22:44;;;;;;;10.20;9.23;;;;;;;9.13;73.59;144064.97;5483873;26;20257;-49
2024/04/10 06:25:12;;;;;;;9.83;8.93;;;;;;;9.03;73.72;144039.59;5483699;26;20710;-52
2024/04/10 06:27:38;;;;;;;9.30;8.47;;;;;;;8.94;72.94;144020.25;5484008;26;20215;-52
2024/04/10 06:30:07;;;;;;;10.27;8.90;;;;;;;9.07;72.68;144049.28;5483707;26;20260;-52
2024/04/10 06:32:35;;;;;;;10.70;9.67;;;;;;;9.12;72.38;144062.59;5483635;26;20218;-52
2024/04/10 06:35:03;;;;;;;10.23;9.43;;;;;;;9.17;72.85;144073.44;5483812;26;20706;-53
2024/04/10 06:37:28;;;;;;;9.60;8.70;;;;;;;9.21;72.05;144083.09;5483962;26;20241;-52
2024/04/10 06:39:56;;;;;;;8.70;7.80;;;;;;;9.32;71.85;144109.69;5483620;26;20219;-52
2024/04/10 06:42:22;;;;;;;10.17;9.17;;;;;;;9.44;70.87;144138.72;5483337;26;20525;-52
2024/04/10 06:44:51;;;;;;;9.93;9.13;;;;;;;9.54;71.40;144162.91;5483344;26;20287;-52
2024/04/10 06:47:17;;;;;;;10.90;9.27;;;;;;;9.58;70.55;144172.59;5483526;26;20241;-53
2024/04/10 06:49:47;;;;;;;9.37;8.37;;;;;;;9.77;70.41;144218.53;5482967;26;20214;-52
2024/04/10 06:52:12;;;;;;;11.10;9.57;;;;;;;9.82;70.66;144230.63;5483804;26;20257;-53
2024/04/10 06:54:40;;;;;;;9.60;8.57;;;;;;;9.92;69.44;144253.59;5483550;26;20218;-52
2024/04/10 06:57:06;;;;;;;12.23;8.47;;;;;;;10.11;69.30;144299.53;5483155;26;20545;-51
2024/04/10 06:59:34;;;;;;;9.70;8.83;;;;;;;10.22;68.32;144325.03;5482579;26;20591;-50
2024/04/10 07:01:59;;;;;;;11.27;9.47;;;;;;;10.41;68.04;144372.19;5481054;26;20227;-51
2024/04/10 07:04:27;;;;;;;10.30;9.40;;;;;;;10.49;67.00;144390.38;5483290;26;20615;-50
2024/04/10 07:07:01;;;;;;;15.30;9.50;;;;;;;10.36;66.53;144360.09;5483269;26;20548;-52
2024/04/10 07:09:29;;;;;;;9.33;8.47;;;;;;;10.48;66.02;144389.16;5482774;26;20230;-52
2024/04/10 07:11:54;;;;;;;10.63;9.00;;;;;;;10.66;66.22;144432.69;5483194;26;20207;-51
2024/04/10 07:14:22;;;;;;;10.13;9.13;;;;;;;10.84;65.06;144475.06;5482945;26;20286;-51
2024/04/10 07:16:48;;;;;;;12.50;8.10;;;;;;;11.03;65.43;144521.06;5482563;26;20214;-50
2024/04/10 07:19:16;;;;;;;11.13;8.93;;;;;;;11.10;64.55;144538.00;5479424;26;20273;-51
2024/04/10 07:21:41;;;;;;;13.17;9.30;;;;;;;11.35;64.09;144597.34;5482834;26;20747;-51
2024/04/10 07:24:12;;;;;;;30.23;19.83;;;;;;;11.42;63.42;144614.28;5481930;26;20234;-51
2024/04/10 07:26:38;;;;;;;14.23;11.60;;;;;;;11.43;63.57;144616.72;5482844;26;20564;-51
2024/04/10 07:29:06;;;;;;;11.63;9.10;;;;;;;11.77;62.07;144699.13;5482577;26;20269;-52
2024/04/10 07:31:32;;;;;;;9.87;9.00;;;;;;;11.86;61.24;144720.91;5482497;26;20241;-52
2024/04/10 07:34:00;;;;;;;14.77;9.20;;;;;;;11.76;61.13;144695.47;5482805;26;20223;-52
2024/04/10 07:36:26;;;;;;;11.77;8.93;;;;;;;11.98;61.50;144748.78;5483605;26;20258;-52
2024/04/10 07:38:55;;;;;;;10.73;8.70;;;;;;;11.92;59.84;144733.00;5482171;26;20215;-51
2024/04/10 07:41:24;;;;;;;10.47;8.97;;;;;;;11.83;60.03;144712.41;5482338;26;20241;-51
2024/04/10 07:43:53;;;;;;;14.57;9.03;;;;;;;11.92;60.52;144734.22;5482602;26;20226;-51
2024/04/10 07:46:20;;;;;;;17.20;10.80;;;;;;;11.95;60.64;144741.50;5482461;26;20570;-52
2024/04/10 07:48:50;;;;;;;132.37;63.40;;;;;;;12.03;60.74;144760.88;5483079;26;20222;-51
2024/04/10 07:51:16;;;;;;;110.07;58.50;;;;;;;12.15;60.17;144789.97;5482501;26;20694;-51
2024/04/10 07:53:44;;;;;;;45.67;25.67;;;;;;;12.10;60.21;144776.66;5481695;26;20253;-52
2024/04/10 07:56:12;;;;;;;18.57;13.40;;;;;;;12.18;59.15;144797.25;5482206;26;20215;-52
2024/04/10 07:58:43;;;;;;;14.40;9.83;;;;;;;12.51;58.39;144874.81;5482359;26;20721;-51
2024/04/10 08:01:09;;;;;;;12.23;9.43;;;;;;;13.13;58.46;145025.16;5481166;26;20223;-51
2024/04/10 08:03:38;;;;;;;10.17;8.57;;;;;;;13.63;56.00;145145.25;5482222;26;20219;-53
2024/04/10 08:06:04;;;;;;;10.87;9.77;;;;;;;13.93;53.56;145218.03;5481886;26;20222;-52
2024/04/10 08:08:33;;;;;;;11.07;9.87;;;;;;;14.65;52.41;145391.59;5480922;26;20230;-52
2024/04/10 08:11:00;;;;;;;10.47;9.30;;;;;;;15.57;50.37;145612.72;5484331;26;20263;-52
2024/04/10 08:13:28;;;;;;;13.17;9.70;;;;;;;16.09;48.94;145737.88;5485873;26;20223;-52
2024/04/10 08:15:59;;;;;;;9.60;8.70;;;;;;;17.11;46.27;145983.47;5485424;26;20219;-51
2024/04/10 08:18:27;;;;;;;10.60;9.63;;;;;;;17.63;43.81;146110.03;5485780;26;20309;-51
2024/04/10 08:21:00;;;;;;;10.87;9.80;;;;;;;19.05;42.49;146450.94;5484746;26;20253;-51
2024/04/10 08:23:29;;;;;;;12.10;9.83;;;;;;;19.93;39.58;146665.41;5484476;26;20265;-52
2024/04/10 08:25:55;;;;;;;9.80;8.93;;;;;;;20.94;38.57;146908.06;5484865;26;20211;-51
2024/04/10 08:28:24;;;;;;;13.73;9.73;;;;;;;21.09;37.08;146945.91;5484417;26;20284;-52
2024/04/10 08:30:50;;;;;;;11.27;10.05;;;;;;;21.71;36.34;147094.78;5484334;26;20215;-52
2024/04/10 08:33:21;;;;;;;10.95;9.93;;;;;;;22.97;34.03;147401.31;5484992;26;20219;-51
2024/04/10 08:35:54;;;;;;;10.13;8.93;;;;;;;24.40;32.07;147747.19;5484820;26;20573;-51
2024/04/10 08:38:22;;;;;;;11.20;10.10;;;;;;;24.72;30.86;147825.47;5484419;26;20269;-50
2024/04/10 08:40:51;;;;;;;11.32;10.07;;;;;;;24.16;31.43;147688.50;5482934;26;20222;-51
2024/04/10 08:43:20;;;;;;;9.82;8.82;;;;;;;23.51;32.21;147532.06;5485112;26;20486;-52
2024/04/10 08:45:47;;;;;;;9.38;8.48;;;;;;;22.38;32.99;147257.16;5484612;26;20234;-52
2024/04/10 08:48:16;;;;;;;11.80;9.63;;;;;;;20.52;35.11;146808.06;5484400;26;20214;-52
2024/04/10 08:50:45;;;;;;;11.07;9.63;;;;;;;19.07;37.44;146457.00;5484259;26;20253;-53
2024/04/10 08:53:15;;;;;;;10.90;9.90;;;;;;;17.80;40.24;146148.97;5484366;26;20223;-52
2024/04/10 08:55:41;;;;;;;11.38;10.45;;;;;;;17.67;41.40;146118.56;5484156;26;20261;-52
2024/04/10 08:58:10;;;;;;;11.43;10.23;;;;;;;18.94;39.27;146425.34;5484379;26;20266;-52
2024/04/10 09:00:39;;;;;;;11.88;9.65;;;;;;;22.49;33.68;147284.00;5484248;26;20799;-52
2024/04/10 09:03:09;;;;;;;10.88;9.98;;;;;;;25.37;29.35;147980.81;5484191;26;20802;-52
2024/04/10 09:05:34;;;;;;;11.98;10.20;;;;;;;26.47;27.57;148250.16;5483981;26;20707;-52
2024/04/10 09:08:05;;;;;;;11.05;10.00;;;;;;;27.71;25.86;148549.03;5484522;26;20279;-52
2024/04/10 09:10:31;;;;;;;12.10;10.80;;;;;;;28.41;24.87;148720.66;5484152;26;20227;-52
2024/04/10 09:13:07;;;;;;;12.55;11.55;;;;;;;29.31;23.64;148938.97;5484089;26;20229;-52
2024/04/10 09:15:33;;;;;;;12.50;11.50;;;;;;;29.92;23.56;149087.41;5484038;26;20219;-52
2024/04/10 09:18:01;;;;;;;12.18;11.10;;;;;;;26.37;25.73;148225.63;5484059;26;20271;-52
2024/04/10 09:20:27;;;;;;;12.57;11.38;;;;;;;23.50;29.56;147528.38;5484276;26;20549;-52
2024/04/10 09:23:06;;;;;;;11.75;10.65;;;;;;;23.46;30.13;147518.63;5483339;26;20229;-52
2024/04/10 09:25:32;;;;;;;11.82;10.82;;;;;;;22.34;31.48;147247.41;5483991;26;20753;-52
2024/04/10 09:28:02;;;;;;;11.77;10.77;;;;;;;20.62;32.58;146832.50;5484058;26;20207;-52
2024/04/10 09:30:28;;;;;;;12.05;10.85;;;;;;;19.78;34.08;146627.66;5483505;26;20206;-51
2024/04/10 09:32:56;;;;;;;11.73;10.70;;;;;;;23.41;30.63;147506.41;5483919;26;20218;-51
2024/04/10 09:35:23;;;;;;;11.20;10.20;;;;;;;26.74;25.31;148315.03;5483772;26;20254;-50
2024/04/10 09:37:52;;;;;;;11.65;10.60;;;;;;;26.33;25.92;148215.88;5483640;26;20226;-51
2024/04/10 09:40:22;;;;;;;11.52;10.55;;;;;;;23.60;28.28;147552.84;5483983;26;20219;-51
2024/04/10 09:42:52;;;;;;;11.93;10.93;;;;;;;21.57;31.71;147060.59;5483757;26;20222;-50
2024/04/10 09:45:21;;;;;;;11.27;10.43;;;;;;;19.99;34.76;146680.06;5483835;26;20210;-51
2024/04/10 09:47:53;;;;;;;19.48;10.60;;;;;;;20.17;34.18;146722.69;5483763;26;20761;-51
2024/04/10 09:50:25;;;;;;;12.02;10.82;;;;;;;22.19;31.25;147211.97;5483627;26;20219;-53
2024/04/10 09:52:54;;;;;;;11.73;10.52;;;;;;;23.38;29.60;147499.06;5483554;26;20641;-52
2024/04/10 09:55:22;;;;;;;10.27;9.57;;;;;;;24.18;28.75;147694.63;5483513;26;20215;-52
2024/04/10 09:57:50;;;;;;;11.80;10.90;;;;;;;26.37;26.44;148224.41;5483753;26;20222;-52
2024/04/10 10:00:16;;;;;;;12.90;11.60;;;;;;;25.99;26.19;148131.34;5483737;26;20211;-51
2024/04/10 10:02:44;;;;;;;11.80;10.70;;;;;;;23.78;27.98;147596.81;5483568;26;20275;-53
2024/04/10 10:05:19;;;;;;;11.88;10.88;;;;;;;23.47;29.43;147521.06;5483460;26;20261;-52
2024/04/10 10:07:47;;;;;;;11.93;11.02;;;;;;;24.26;28.60;147713.00;5483345;26;20308;-52
2024/04/10 10:10:12;;;;;;;12.32;11.32;;;;;;;24.99;27.73;147889.09;5483549;26;20262;-51
2024/04/10 10:12:44;;;;;;;12.52;11.52;;;;;;;26.24;27.14;148192.59;5483139;26;20717;-50
2024/04/10 10:15:10;;;;;;;10.60;9.90;;;;;;;26.07;26.14;148150.91;5483465;26;20253;-51
2024/04/10 10:17:39;;;;;;;12.13;11.20;;;;;;;25.53;26.60;148020.00;5483482;26;20245;-50
2024/04/10 10:20:18;;;;;;;12.27;11.18;;;;;;;24.91;27.18;147869.53;5483135;26;20215;-51
2024/04/10 10:22:46;;;;;;;12.10;10.85;;;;;;;24.44;26.92;147756.97;5483248;26;20206;-51
2024/04/10 10:25:13;;;;;;;11.20;10.30;;;;;;;23.31;28.25;147483.13;5482815;26;20223;-51
2024/04/10 10:27:44;;;;;;;11.70;10.70;;;;;;;22.73;27.95;147342.66;5483074;26;20305;-52
2024/04/10 10:30:10;;;;;;;11.27;10.35;;;;;;;22.72;27.58;147339.00;5483017;26;20241;-52
2024/04/10 10:32:38;;;;;;;11.65;10.70;;;;;;;21.15;30.60;146959.34;5482145;26;20222;-52
2024/04/10 10:35:07;;;;;;;11.23;10.23;;;;;;;20.10;31.21;146706.88;5482553;26;20207;-51
2024/04/10 10:37:35;;;;;;;10.75;9.95;;;;;;;19.86;32.70;146647.16;5482841;26;20266;-52
2024/04/10 10:40:02;;;;;;;10.07;9.32;;;;;;;18.85;33.69;146404.66;5483047;26;20505;-52
2024/04/10 10:42:30;;;;;;;10.75;9.95;;;;;;;18.60;33.63;146342.56;5483215;26;20282;-52
2024/04/10 10:45:05;;;;;;;9.90;9.10;;;;;;;18.00;35.39;146197.66;5482781;26;20203;-51
2024/04/10 10:47:40;;;;;;;11.25;10.35;;;;;;;17.84;37.03;146158.72;5483158;26;20230;-51
2024/04/10 10:50:06;;;;;;;11.35;10.05;;;;;;;17.39;33.86;146051.59;5482603;26;20207;-53
2024/04/10 10:52:35;;;;;;;11.17;10.23;;;;;;;17.06;34.50;145972.53;5482601;26;20319;-52
2024/04/10 10:55:07;;;;;;;10.60;9.80;;;;;;;17.30;35.33;146028.47;5482824;26;20246;-52
2024/04/10 10:57:35;;;;;;;10.60;9.70;;;;;;;17.75;34.50;146138.03;5482662;26;20215;-52
2024/04/10 11:00:15;;;;;;;10.33;9.63;;;;;;;17.80;35.58;146150.19;5482707;26;20215;-52
2024/04/10 11:02:44;;;;;;;10.27;9.47;;;;;;;17.25;35.20;146016.31;5482549;26;20701;-52
2024/04/10 11:05:11;;;;;;;10.80;9.90;;;;;;;17.08;35.71;145977.38;5482307;26;20653;-51
2024/04/10 11:07:40;;;;;;;11.40;10.40;;;;;;;17.03;35.24;145964.00;5482820;26;20318;-52
2024/04/10 11:10:06;;;;;;;11.23;10.23;;;;;;;16.86;35.87;145922.66;5482331;26;20237;-52
2024/04/10 11:12:34;;;;;;;14.00;10.13;;;;;;;16.59;37.56;145858.22;5482592;26;20821;-52
2024/04/10 11:15:05;;;;;;;14.73;13.53;;;;;;;16.74;38.28;145894.72;5482590;26;20219;-51
2024/04/10 11:17:36;;;;;;;10.70;9.80;;;;;;;16.94;37.06;145943.31;5482459;26;20249;-52
2024/04/10 11:20:05;;;;;;;10.60;9.70;;;;;;;17.17;36.98;145999.28;5482118;26;20284;-52
2024/04/10 11:22:33;;;;;;;10.80;9.73;;;;;;;17.04;36.82;145966.47;5482181;26;20768;-52
2024/04/10 11:25:00;;;;;;;10.43;9.67;;;;;;;16.70;37.55;145884.97;5482190;26;20226;-51
2024/04/10 11:27:28;;;;;;;10.23;9.30;;;;;;;16.69;36.89;145882.56;5481912;26;20242;-52
2024/04/10 11:29:54;;;;;;;9.90;9.20;;;;;;;16.68;36.78;145878.88;5481991;26;20585;-51
2024/04/10 11:32:22;;;;;;;10.43;9.63;;;;;;;16.47;36.66;145830.25;5481929;26;20698;-52